Time;durP1;ratioP1;P1;durP2;ratioP2;P2;SDS_P1;SDS_P2;PMS_P1;PMS_P2;Temp;Humidity;BMP_temperature;BMP_pressure;BME280_temperature;BME280_humidity;BME280_pressure;Samples;Min_cycle;Max_cycle;Signal;HPM_P1;HPM_P2
2021/09/11 00:02:12;;;;;;;91.08;45.78;;;;;;;9.42;88.44;99700.64;1693011;84;20999;-64
2021/09/11 00:04:48;;;;;;;99.07;48.28;;;;;;;9.39;88.38;99697.95;1685135;83;20911;-64
2021/09/11 00:07:19;;;;;;;99.72;47.73;;;;;;;9.38;88.27;99698.25;1671825;84;21046;-64
2021/09/11 00:09:51;;;;;;;;;;;;;;;9.36;88.30;99696.37;1694382;83;20935;-64
2021/09/11 00:12:20;;;;;;;85.40;43.90;;;;;;;9.32;88.42;99692.62;1722811;83;20136;-65
2021/09/11 00:14:54;;;;;;;;;;;;;;;9.29;88.50;99696.78;1691785;83;20961;-64
2021/09/11 00:17:29;;;;;;;90.25;42.00;;;;;;;9.27;88.38;99696.27;1681783;84;20161;-65
2021/09/11 00:20:04;;;;;;;;;;;;;;;9.22;88.32;99694.47;1685548;84;21164;-64
2021/09/11 00:22:32;;;;;;;80.12;41.88;;;;;;;9.20;88.42;99694.52;1679915;84;20464;-64
2021/09/11 00:25:06;;;;;;;96.20;42.73;;;;;;;9.18;88.64;99698.92;1655139;85;21462;-63
2021/09/11 00:27:35;;;;;;;95.03;44.88;;;;;;;9.17;88.60;99699.23;1677685;84;21047;-64
2021/09/11 00:30:06;;;;;;;89.47;43.50;;;;;;;9.16;88.64;99697.61;1685981;84;21640;-64
2021/09/11 00:32:46;;;;;;;90.07;42.95;;;;;;;9.14;88.54;99693.80;1676187;84;21526;-64
2021/09/11 00:35:17;;;;;;;84.13;41.53;;;;;;;9.13;88.77;99694.10;1682921;84;20922;-64
2021/09/11 00:37:52;;;;;;;83.35;41.75;;;;;;;9.11;88.75;99697.70;1687550;84;21002;-64
2021/09/11 00:40:24;;;;;;;89.45;40.73;;;;;;;9.10;88.76;99698.25;1687022;84;20960;-64
2021/09/11 00:42:56;;;;;;;84.65;39.85;;;;;;;9.08;88.80;99695.01;1680081;84;21180;-65
2021/09/11 00:45:23;;;;;;;81.97;41.90;;;;;;;9.07;88.71;99691.20;1676380;84;21153;-65
2021/09/11 00:47:55;;;;;;;88.85;41.02;;;;;;;9.04;88.62;99689.88;1682091;84;21010;-65
2021/09/11 00:50:25;;;;;;;91.75;42.05;;;;;;;9.03;88.57;99688.25;1687114;84;21475;-65
2021/09/11 00:52:56;;;;;;;79.03;38.75;;;;;;;9.01;88.50;99685.00;1681731;84;20952;-64
2021/09/11 00:55:31;;;;;;;83.85;39.63;;;;;;;9.00;88.52;99687.48;1676838;84;20940;-64
2021/09/11 00:58:05;;;;;;;78.62;38.40;;;;;;;8.98;88.63;99686.16;1674702;84;21037;-63
2021/09/11 01:00:35;;;;;;;79.72;39.48;;;;;;;8.94;88.72;99687.32;1655299;84;20933;-64
2021/09/11 01:03:14;;;;;;;91.25;40.15;;;;;;;8.92;88.69;99685.44;1684945;84;20884;-64
2021/09/11 01:05:41;;;;;;;80.10;39.77;;;;;;;8.88;88.65;99684.42;1674982;84;20975;-64
2021/09/11 01:08:13;;;;;;;74.00;38.10;;;;;;;8.86;88.63;99679.80;1674397;84;21026;-64
2021/09/11 01:10:42;;;;;;;83.22;40.40;;;;;;;8.83;88.69;99681.21;1680968;84;20980;-66
2021/09/11 01:13:11;;;;;;;76.57;36.08;;;;;;;8.82;88.69;99682.33;1695993;84;20903;-65
2021/09/11 01:15:45;;;;;;;76.10;37.60;;;;;;;8.79;88.60;99681.56;1665394;84;20928;-66
2021/09/11 01:18:18;;;;;;;73.52;35.90;;;;;;;8.77;88.62;99680.23;1683960;84;21125;-64
2021/09/11 01:20:49;;;;;;;70.32;36.75;;;;;;;8.75;88.65;99680.53;1677250;84;20980;-64
2021/09/11 01:23:21;;;;;;;68.30;34.25;;;;;;;8.75;88.79;99675.62;1676178;84;20993;-64
2021/09/11 01:25:55;;;;;;;67.32;34.80;;;;;;;8.71;88.84;99674.03;1678157;84;20904;-64
2021/09/11 01:28:34;;;;;;;69.90;35.88;;;;;;;8.70;88.90;99674.33;1661331;84;21560;-64
2021/09/11 01:31:07;;;;;;;77.20;36.17;;;;;;;8.67;88.90;99669.46;1674457;84;21614;-65
2021/09/11 01:33:42;;;;;;;62.23;33.58;;;;;;;8.65;88.98;99671.72;1674756;84;20943;-66
2021/09/11 01:36:23;;;;;;;68.57;32.93;;;;;;;8.62;89.10;99671.76;1650487;85;20858;-67
2021/09/11 01:38:52;;;;;;;65.17;32.55;;;;;;;8.58;89.15;99672.91;1671551;84;20994;-65
2021/09/11 01:41:26;;;;;;;61.90;30.75;;;;;;;8.56;89.13;99665.56;1679773;84;21479;-65
2021/09/11 01:43:53;;;;;;;64.67;32.67;;;;;;;8.55;89.24;99672.70;1672413;84;21030;-66
2021/09/11 01:46:21;;;;;;;62.40;31.30;;;;;;;8.53;89.27;99671.63;1652821;86;20905;-66
2021/09/11 01:48:58;;;;;;;57.83;31.33;;;;;;;8.50;89.28;99670.05;1661908;85;21482;-65
2021/09/11 01:51:26;;;;;;;61.88;31.30;;;;;;;8.49;89.40;99667.86;1685828;84;21090;-66
2021/09/11 01:53:58;;;;;;;62.90;30.40;;;;;;;8.47;89.34;99667.91;1674154;85;21041;-65
2021/09/11 01:56:34;;;;;;;54.90;30.45;;;;;;;8.44;89.24;99672.05;1660906;84;20991;-65
2021/09/11 01:59:03;;;;;;;56.15;29.15;;;;;;;8.43;89.29;99666.88;1686985;85;20911;-65
2021/09/11 02:01:35;;;;;;;60.35;29.12;;;;;;;8.41;89.36;99671.28;1676083;84;21170;-65
2021/09/11 02:04:08;;;;;;;63.23;29.30;;;;;;;8.41;89.34;99671.28;1666031;84;20955;-64
2021/09/11 02:06:38;;;;;;;53.17;29.30;;;;;;;8.39;89.41;99672.69;1677519;84;21558;-65
2021/09/11 02:09:07;;;;;;;51.37;28.57;;;;;;;8.35;89.52;99673.83;1694366;84;20971;-65
2021/09/11 02:11:44;;;;;;;52.43;28.38;;;;;;;8.31;89.95;99670.59;1695965;84;21072;-65
2021/09/11 02:14:19;;;;;;;49.27;26.33;;;;;;;8.28;90.12;99673.37;1675495;83;21207;-65
2021/09/11 02:16:49;;;;;;;54.18;27.82;;;;;;;8.26;90.15;99676.95;1682504;84;21544;-66
2021/09/11 02:19:25;;;;;;;47.88;26.30;;;;;;;8.23;90.31;99672.08;1688712;84;21015;-66
2021/09/11 02:21:54;;;;;;;50.12;25.72;;;;;;;8.21;90.40;99672.38;1658997;84;20983;-65
2021/09/11 02:24:24;;;;;;;56.40;29.25;;;;;;;8.20;90.40;99674.85;1692178;84;20939;-66
2021/09/11 02:26:58;;;;;;;52.88;27.22;;;;;;;8.20;90.47;99674.03;1682629;84;21796;-65
2021/09/11 02:29:29;;;;;;;53.73;27.77;;;;;;;8.21;90.58;99678.40;1675962;85;21011;-65
2021/09/11 02:32:01;;;;;;;51.83;26.62;;;;;;;8.21;90.64;99674.30;1673917;84;20948;-65
2021/09/11 02:34:31;;;;;;;52.95;24.82;;;;;;;8.21;90.66;99671.56;1663862;85;21502;-65
2021/09/11 02:37:05;;;;;;;50.90;26.23;;;;;;;8.21;90.53;99677.03;1657121;84;21458;-65
2021/09/11 02:39:34;;;;;;;51.37;25.50;;;;;;;8.21;90.48;99669.64;1686765;84;21769;-65
2021/09/11 02:42:09;;;;;;;55.20;25.75;;;;;;;8.20;90.46;99671.30;1657643;85;20985;-65
2021/09/11 02:44:41;;;;;;;50.43;24.80;;;;;;;8.20;90.58;99672.67;1681480;84;21075;-65
2021/09/11 02:47:20;;;;;;;48.50;24.47;;;;;;;8.20;90.56;99668.02;1654763;85;21012;-65
2021/09/11 02:49:48;;;;;;;43.78;23.80;;;;;;;8.20;90.56;99668.57;1685461;84;21050;-65
2021/09/11 02:52:23;;;;;;;46.18;23.87;;;;;;;8.20;90.59;99665.83;1678722;85;21151;-65
2021/09/11 02:54:55;;;;;;;50.52;22.65;;;;;;;8.20;90.60;99664.47;1655203;85;21038;-65
2021/09/11 02:57:29;;;;;;;39.25;20.62;;;;;;;8.20;90.54;99668.57;1686084;84;20959;-65
2021/09/11 03:00:04;;;;;;;41.55;20.12;;;;;;;8.19;90.72;99671.05;1687019;84;20892;-65
2021/09/11 03:02:39;;;;;;;39.48;18.30;;;;;;;8.19;90.92;99670.48;1675068;85;20953;-65
2021/09/11 03:05:09;;;;;;;34.85;18.07;;;;;;;8.21;90.98;99672.92;1651999;84;21032;-66
2021/09/11 03:07:40;;;;;;;41.02;17.20;;;;;;;8.19;91.04;99671.86;1678197;84;20919;-64
2021/09/11 03:10:11;;;;;;;36.50;18.32;;;;;;;8.19;91.06;99669.67;1688299;84;21066;-65
2021/09/11 03:12:41;;;;;;;38.53;18.23;;;;;;;8.18;91.06;99668.05;1669167;85;20972;-66
2021/09/11 03:15:12;;;;;;;31.97;17.00;;;;;;;8.15;91.09;99670.83;1679611;84;20943;-66
2021/09/11 03:17:42;;;;;;;;;;;;;;;8.14;91.03;99668.39;1662710;85;20907;-66
2021/09/11 03:20:16;;;;;;;37.40;16.00;;;;;;;8.11;91.06;99668.42;1683225;84;20495;-64
2021/09/11 03:22:44;;;;;;;32.73;16.57;;;;;;;8.09;91.15;99672.01;1679524;84;21455;-65
2021/09/11 03:25:23;;;;;;;39.92;16.85;;;;;;;8.08;91.29;99673.15;1677334;85;21594;-65
2021/09/11 03:28:01;;;;;;;37.28;16.93;;;;;;;8.09;91.40;99673.93;1677455;85;20940;-65
2021/09/11 03:30:34;;;;;;;33.45;16.97;;;;;;;8.08;91.39;99677.80;1675095;85;21872;-66
2021/09/11 03:33:08;;;;;;;36.68;16.75;;;;;;;8.06;91.42;99676.73;1692982;84;21467;-65
2021/09/11 03:35:38;;;;;;;31.93;17.00;;;;;;;8.06;91.36;99677.28;1664854;85;21019;-65
2021/09/11 03:38:09;;;;;;;33.35;16.35;;;;;;;8.05;91.58;99679.20;1666452;85;21070;-65
2021/09/11 03:40:41;;;;;;;38.78;16.45;;;;;;;8.05;91.69;99677.03;1663004;84;20971;-64
2021/09/11 03:43:14;;;;;;;33.50;16.55;;;;;;;8.05;91.58;99679.77;1654119;85;21184;-65
2021/09/11 03:45:43;;;;;;;26.80;14.93;;;;;;;8.05;91.70;99681.13;1649374;86;20909;-65
2021/09/11 03:48:16;;;;;;;27.87;15.32;;;;;;;8.06;91.85;99680.83;1654749;85;21108;-65
2021/09/11 03:50:46;;;;;;;26.07;14.25;;;;;;;8.08;91.91;99685.45;1647643;85;20960;-65
2021/09/11 03:53:30;;;;;;;32.25;16.00;;;;;;;8.09;92.05;99686.23;1665809;85;20949;-65
2021/09/11 03:55:59;;;;;;;29.50;16.02;;;;;;;8.10;92.42;99686.49;1646654;86;20897;-65
2021/09/11 03:58:28;;;;;;;31.05;15.80;;;;;;;8.11;92.67;99680.73;1646471;86;21571;-65
2021/09/11 04:01:01;;;;;;;26.17;15.35;;;;;;;8.16;92.80;99691.59;1647116;86;20980;-65
2021/09/11 04:03:35;;;;;;;29.90;16.23;;;;;;;8.17;92.92;99690.48;1653991;85;21075;-66
2021/09/11 04:06:07;;;;;;;34.15;16.32;;;;;;;8.21;92.98;99696.17;1644525;86;22147;-65
2021/09/11 04:08:40;;;;;;;29.87;15.48;;;;;;;8.25;93.18;99698.02;1619021;87;21152;-65
2021/09/11 04:11:11;;;;;;;45.00;17.17;;;;;;;8.31;93.37;99693.84;1654027;85;20913;-67
2021/09/11 04:13:42;;;;;;;75.15;18.20;;;;;;;8.40;93.52;99700.30;1662873;85;20957;-67
2021/09/11 04:16:14;;;;;;;45.20;18.48;;;;;;;8.47;93.76;99701.55;1654144;85;20993;-66
2021/09/11 04:18:44;;;;;;;40.28;16.97;;;;;;;8.55;93.89;99700.06;1630376;84;21064;-66
2021/09/11 04:21:13;;;;;;;41.00;18.23;;;;;;;8.63;94.10;99706.22;1637607;86;21047;-65
2021/09/11 04:23:40;;;;;;;27.93;16.82;;;;;;;8.71;94.36;99706.06;1608543;88;21060;-65
2021/09/11 04:26:18;;;;;;;42.55;16.97;;;;;;;8.78;94.72;99705.94;1677317;84;20979;-66
2021/09/11 04:28:51;;;;;;;43.55;18.20;;;;;;;8.88;95.07;99698.92;1662798;84;21012;-65
2021/09/11 04:31:21;;;;;;;30.57;17.52;;;;;;;8.99;95.55;99700.11;1657585;85;21020;-66
2021/09/11 04:33:52;;;;;;;34.75;18.98;;;;;;;9.12;96.05;99694.66;1658200;85;23210;-65
2021/09/11 04:36:22;;;;;;;38.90;18.02;;;;;;;9.27;96.25;99697.08;1665140;85;20969;-66
2021/09/11 04:38:54;;;;;;;44.85;17.52;;;;;;;9.42;96.46;99695.97;1667568;84;20896;-66
2021/09/11 04:41:26;;;;;;;35.60;17.42;;;;;;;9.55;96.72;99694.35;1686582;84;20936;-66
2021/09/11 04:43:55;;;;;;;37.55;17.42;;;;;;;9.71;97.17;99694.85;1678894;84;21112;-67
2021/09/11 04:46:24;;;;;;;36.55;16.57;;;;;;;9.85;97.31;99692.88;1675702;84;21098;-67
2021/09/11 04:48:57;;;;;;;35.75;16.82;;;;;;;10.01;97.42;99690.61;1674078;84;21550;-67
2021/09/11 04:51:31;;;;;;;41.92;16.65;;;;;;;10.14;97.56;99689.20;1682347;84;21086;-67
2021/09/11 04:54:03;;;;;;;33.02;16.75;;;;;;;10.29;97.74;99683.96;1682477;84;21018;-67
2021/09/11 04:56:33;;;;;;;32.40;16.55;;;;;;;10.45;97.95;99680.27;1666798;84;20997;-66
2021/09/11 04:59:02;;;;;;;38.20;17.67;;;;;;;10.60;98.12;99682.64;1695847;84;21138;-66
2021/09/11 05:01:34;;;;;;;45.92;17.87;;;;;;;10.75;98.37;99682.82;1682546;84;20980;-65
2021/09/11 05:04:07;;;;;;;39.13;18.20;;;;;;;10.91;98.42;99682.69;1683802;84;20871;-65
2021/09/11 05:06:34;;;;;;;34.98;18.65;;;;;;;11.07;98.43;99679.75;1684018;84;21566;-67
2021/09/11 05:09:05;;;;;;;44.55;19.57;;;;;;;11.25;98.45;99677.90;1680806;84;21107;-66
2021/09/11 05:11:38;;;;;;;41.08;20.88;;;;;;;11.42;98.39;99682.66;1677232;85;21036;-67
2021/09/11 05:14:08;;;;;;;41.28;19.42;;;;;;;11.58;98.19;99682.44;1650561;85;20920;-67
2021/09/11 05:16:43;;;;;;;38.23;18.70;;;;;;;11.73;97.72;99676.50;1676741;84;21490;-68
2021/09/11 05:19:12;;;;;;;32.85;17.07;;;;;;;11.89;96.93;99677.70;1670185;84;21006;-66
2021/09/11 05:21:42;;;;;;;35.23;18.48;;;;;;;12.05;96.15;99674.48;1683968;84;21602;-67
2021/09/11 05:24:17;;;;;;;36.38;18.00;;;;;;;12.22;95.78;99676.66;1657760;84;21444;-67
2021/09/11 05:26:50;;;;;;;31.27;16.62;;;;;;;12.38;95.39;99672.86;1677378;84;20960;-67
2021/09/11 05:29:25;;;;;;;29.45;16.65;;;;;;;12.59;95.81;99677.70;1668027;85;20948;-67
2021/09/11 05:31:57;;;;;;;33.73;16.42;;;;;;;12.74;95.32;99677.98;1684720;84;20943;-67
2021/09/11 05:34:34;;;;;;;37.08;15.65;;;;;;;12.91;95.12;99685.41;1686869;83;20978;-66
2021/09/11 05:37:05;;;;;;;42.60;16.62;;;;;;;13.07;93.62;99683.74;1683468;84;20872;-67
2021/09/11 05:39:37;;;;;;;29.35;15.72;;;;;;;13.20;92.98;99684.14;1680273;85;20944;-64
2021/09/11 05:42:11;;;;;;;;;;;;;;;13.37;92.01;99686.56;1692872;84;20998;-65
2021/09/11 05:44:35;;;;;;;31.75;15.35;;;;;;;13.51;91.56;99685.20;1687616;84;20190;-66
2021/09/11 05:47:08;;;;;;;29.75;17.52;;;;;;;13.68;91.65;99689.83;1672435;85;21012;-65
2021/09/11 05:49:35;;;;;;;33.45;17.10;;;;;;;13.85;91.36;99688.36;1675368;85;21131;-65
2021/09/11 05:52:10;;;;;;;46.05;17.17;;;;;;;14.01;91.20;99688.55;1668444;85;21470;-66
2021/09/11 05:54:43;;;;;;;37.08;17.07;;;;;;;14.18;89.59;99687.63;1682999;84;20958;-65
2021/09/11 05:57:15;;;;;;;32.85;17.02;;;;;;;14.34;89.30;99690.02;1658085;85;21023;-66
2021/09/11 05:59:44;;;;;;;34.78;16.90;;;;;;;14.52;88.18;99679.64;1676726;85;20943;-65
2021/09/11 06:02:11;;;;;;;36.30;16.80;;;;;;;14.67;87.38;99683.73;1677859;84;21253;-66
2021/09/11 06:04:42;;;;;;;34.98;16.87;;;;;;;14.80;86.31;99673.77;1681053;84;21012;-66
2021/09/11 06:07:12;;;;;;;37.33;17.10;;;;;;;14.91;85.49;99675.53;1689028;84;20988;-68
2021/09/11 06:09:47;;;;;;;38.13;17.37;;;;;;;14.99;84.90;99680.16;1673207;85;20977;-65
2021/09/11 06:12:21;;;;;;;30.40;15.93;;;;;;;15.13;84.86;99679.81;1683295;84;21510;-66
2021/09/11 06:14:51;;;;;;;35.33;16.85;;;;;;;15.27;82.81;99678.12;1677880;85;21561;-66
2021/09/11 06:17:24;;;;;;;33.70;17.20;;;;;;;15.38;82.05;99677.90;1682114;84;20928;-65
2021/09/11 06:19:55;;;;;;;26.60;15.40;;;;;;;15.53;81.60;99676.64;1683238;84;21482;-66
2021/09/11 06:22:31;;;;;;;26.80;14.78;;;;;;;15.69;80.34;99682.30;1675513;84;21030;-66
2021/09/11 06:25:00;;;;;;;25.30;13.18;;;;;;;15.89;80.65;99682.52;1689932;84;21074;-66
2021/09/11 06:27:29;;;;;;;25.82;13.75;;;;;;;16.12;80.08;99683.06;1676391;85;21520;-66
2021/09/11 06:29:58;;;;;;;26.25;13.60;;;;;;;16.35;78.53;99686.68;1679857;84;20999;-65
2021/09/11 06:32:33;;;;;;;27.67;13.95;;;;;;;16.58;78.09;99684.98;1682424;84;20912;-66
2021/09/11 06:35:05;;;;;;;23.18;14.00;;;;;;;16.79;75.51;99677.86;1667826;84;21536;-66
2021/09/11 06:37:36;;;;;;;28.77;13.15;;;;;;;16.98;75.53;99685.50;1675439;85;20969;-66
2021/09/11 06:40:19;;;;;;;25.08;12.60;;;;;;;17.12;73.37;99683.11;1689956;84;21521;-66
2021/09/11 06:42:41;;;;;;;25.92;13.43;;;;;;;17.26;72.30;99679.33;1677314;84;20971;-66
2021/09/11 06:45:11;;;;;;;27.95;13.62;;;;;;;17.44;72.34;99677.78;1681283;84;21015;-66
2021/09/11 06:47:42;;;;;;;24.07;13.43;;;;;;;17.62;70.88;99682.39;1679572;84;21459;-66
2021/09/11 06:50:14;;;;;;;26.68;13.13;;;;;;;17.79;71.06;99686.80;1684001;84;21428;-66
2021/09/11 06:52:54;;;;;;;27.55;13.62;;;;;;;17.98;70.42;99683.24;1691959;84;21026;-66
2021/09/11 06:55:16;;;;;;;23.37;13.27;;;;;;;18.19;69.92;99687.89;1677319;84;21475;-67
2021/09/11 06:57:52;;;;;;;22.15;12.45;;;;;;;18.36;67.66;99688.07;1658532;85;21275;-66
2021/09/11 07:00:25;;;;;;;28.15;13.70;;;;;;;18.46;68.09;99684.12;1675930;84;21003;-66
2021/09/11 07:03:01;;;;;;;30.45;13.53;;;;;;;18.54;66.94;99678.10;1683492;84;21090;-66
2021/09/11 07:05:29;;;;;;;24.35;13.43;;;;;;;18.67;67.88;99682.38;1683602;84;21096;-66
2021/09/11 07:08:01;;;;;;;26.90;13.15;;;;;;;18.85;68.19;99684.12;1688412;84;20927;-66
2021/09/11 07:10:31;;;;;;;;;;;;;;;18.98;66.48;99681.41;1677583;84;20924;-66
2021/09/11 07:13:03;;;;;;;32.17;13.75;;;;;;;19.08;65.07;99677.18;1672851;85;20156;-66
2021/09/11 07:15:32;;;;;;;26.95;12.37;;;;;;;19.25;66.21;99688.42;1680015;84;20923;-66
2021/09/11 07:18:04;;;;;;;28.40;11.68;;;;;;;19.43;64.60;99689.55;1678866;84;20916;-66
2021/09/11 07:20:32;;;;;;;28.92;12.82;;;;;;;19.66;64.79;99686.16;1672488;85;20880;-64
2021/09/11 07:23:06;;;;;;;19.52;11.08;;;;;;;20.04;63.30;99694.11;1684249;84;21031;-65
2021/09/11 07:25:35;;;;;;;29.02;11.75;;;;;;;20.49;61.60;99691.77;1676062;84;20951;-65
2021/09/11 07:28:04;;;;;;;24.47;11.70;;;;;;;21.00;60.38;99678.59;1677877;84;20943;-65
2021/09/11 07:30:39;;;;;;;25.45;11.55;;;;;;;21.56;58.18;99689.52;1652115;85;20951;-65
2021/09/11 07:33:15;;;;;;;40.92;11.97;;;;;;;22.11;56.08;99678.36;1690157;84;21083;-65
2021/09/11 07:35:47;;;;;;;23.32;12.50;;;;;;;22.62;55.32;99683.80;1675831;84;21014;-65
2021/09/11 07:38:15;;;;;;;21.80;12.50;;;;;;;23.02;52.33;99684.17;1674598;84;21473;-65
2021/09/11 07:40:47;;;;;;;22.15;13.08;;;;;;;23.28;52.46;99684.40;1685220;84;20880;-65
2021/09/11 07:43:15;;;;;;;23.27;12.18;;;;;;;23.48;52.15;99674.22;1670187;85;21062;-66
2021/09/11 07:45:47;;;;;;;22.07;11.88;;;;;;;23.75;49.89;99677.42;1679673;84;20947;-65
2021/09/11 07:48:18;;;;;;;17.73;9.70;;;;;;;23.98;47.18;99675.80;1680712;84;21547;-66
2021/09/11 07:50:51;;;;;;;18.02;10.00;;;;;;;24.14;43.18;99680.98;1681531;84;20940;-65
2021/09/11 07:53:21;;;;;;;24.00;10.95;;;;;;;24.38;43.12;99678.52;1680516;84;20931;-65
2021/09/11 07:55:53;;;;;;;24.40;12.40;;;;;;;24.62;42.65;99684.66;1675542;84;21869;-66
2021/09/11 07:58:22;;;;;;;19.75;11.53;;;;;;;24.79;43.17;99686.59;1670142;84;21029;-66
2021/09/11 08:00:55;;;;;;;19.52;11.18;;;;;;;24.89;41.94;99682.91;1667942;85;21491;-65
2021/09/11 08:03:30;;;;;;;16.80;9.30;;;;;;;25.01;41.65;99681.06;1678238;84;20931;-65
2021/09/11 08:06:07;;;;;;;19.00;8.80;;;;;;;25.22;41.14;99679.34;1683717;84;20950;-66
2021/09/11 08:08:40;;;;;;;27.05;9.13;;;;;;;25.39;40.63;99673.41;1693554;84;21450;-65
2021/09/11 08:11:08;;;;;;;19.55;9.00;;;;;;;25.51;40.14;99675.08;1686073;84;20971;-66
2021/09/11 08:13:43;;;;;;;18.12;8.73;;;;;;;25.84;39.11;99676.45;1687116;84;20888;-66
2021/09/11 08:16:13;;;;;;;16.87;8.80;;;;;;;26.08;38.74;99671.77;1684111;84;21523;-65
2021/09/11 08:18:50;;;;;;;13.40;7.65;;;;;;;26.21;38.16;99663.59;1684907;84;26666;-66
2021/09/11 08:21:14;;;;;;;16.42;7.70;;;;;;;26.36;39.07;99669.29;1684638;84;21172;-66
2021/09/11 08:23:50;;;;;;;16.80;7.47;;;;;;;26.57;38.39;99671.06;1660939;85;20876;-65
2021/09/11 08:26:20;;;;;;;17.80;8.35;;;;;;;26.67;36.51;99672.12;1680242;84;21506;-65
2021/09/11 08:28:52;;;;;;;14.98;9.55;;;;;;;26.68;38.01;99669.48;1678546;84;21018;-65
2021/09/11 08:31:34;;;;;;;16.93;9.28;;;;;;;26.75;37.87;99667.99;1664074;85;21021;-63
2021/09/11 08:34:04;;;;;;;17.30;9.25;;;;;;;26.99;37.73;99673.14;1684656;84;21062;-65
2021/09/11 08:36:40;;;;;;;24.15;9.43;;;;;;;27.17;36.67;99657.55;1667939;85;20944;-65
2021/09/11 08:39:09;;;;;;;21.73;9.25;;;;;;;27.05;36.31;99660.97;1676217;84;21531;-68
2021/09/11 08:41:46;;;;;;;16.48;8.03;;;;;;;27.19;37.18;99659.94;1650572;85;20893;-65
2021/09/11 08:44:19;;;;;;;21.57;7.50;;;;;;;27.48;36.05;99649.02;1683303;84;20965;-66
2021/09/11 08:46:53;;;;;;;17.85;8.20;;;;;;;27.67;36.49;99654.58;1659725;85;20956;-66
2021/09/11 08:49:25;;;;;;;14.90;7.92;;;;;;;27.82;35.28;99645.41;1676977;85;20960;-66
2021/09/11 08:51:52;;;;;;;16.48;8.50;;;;;;;27.84;35.26;99634.49;1677190;85;21444;-66
2021/09/11 08:54:22;;;;;;;18.57;8.43;;;;;;;27.80;35.25;99642.84;1682531;84;21105;-66
2021/09/11 08:56:52;;;;;;;15.90;8.03;;;;;;;27.79;34.13;99640.63;1650377;84;20919;-66
2021/09/11 08:59:30;;;;;;;13.48;8.65;;;;;;;27.71;35.24;99640.59;1666131;84;20959;-66
2021/09/11 09:02:09;;;;;;;13.80;6.90;;;;;;;27.84;34.70;99638.72;1687376;84;20954;-66
2021/09/11 09:04:54;;;;;;;11.53;6.50;;;;;;;27.93;33.11;99635.34;1673968;85;20912;-66
2021/09/11 09:07:44;;;;;;;24.47;8.10;;;;;;;28.16;32.97;99634.52;1656626;85;20984;-66
2021/09/11 09:10:16;;;;;;;14.23;7.78;;;;;;;28.36;33.85;99631.70;1670187;85;21098;-66
2021/09/11 09:12:49;;;;;;;15.03;5.90;;;;;;;28.56;33.83;99626.84;1659588;85;20856;-66
2021/09/11 09:15:19;;;;;;;14.63;5.67;;;;;;;28.81;32.62;99629.14;1683940;84;21041;-67
2021/09/11 09:17:56;;;;;;;14.73;6.42;;;;;;;29.02;31.73;99627.25;1663049;84;20927;-66
2021/09/11 09:20:33;;;;;;;16.07;6.58;;;;;;;29.16;32.09;99624.09;1685090;84;20959;-66
2021/09/11 09:23:08;;;;;;;11.12;6.28;;;;;;;29.31;29.70;99625.16;1659955;84;20884;-66
2021/09/11 09:25:39;;;;;;;13.43;6.45;;;;;;;29.29;31.78;99623.39;1686053;84;21049;-66
2021/09/11 09:28:10;;;;;;;8.38;6.10;;;;;;;29.37;30.82;99613.50;1675000;85;21670;-66
2021/09/11 09:30:53;;;;;;;14.23;6.72;;;;;;;29.41;31.27;99615.62;1664611;85;20982;-66
2021/09/11 09:33:28;;;;;;;12.43;6.60;;;;;;;29.41;31.03;99612.80;1675619;85;20904;-66
2021/09/11 09:35:55;;;;;;;15.78;6.72;;;;;;;29.38;31.40;99609.44;1673797;85;21015;-66
2021/09/11 09:38:27;;;;;;;11.12;6.22;;;;;;;29.42;30.81;99608.77;1621327;85;20912;-66
2021/09/11 09:40:54;;;;;;;10.80;6.30;;;;;;;29.42;30.00;99603.90;1660079;84;20939;-66
2021/09/11 09:43:49;;;;;;;8.60;5.20;;;;;;;29.44;28.54;99604.25;1674163;84;20965;-66
2021/09/11 09:46:19;;;;;;;11.43;6.33;;;;;;;29.37;28.25;99601.57;1663921;85;21046;-66
2021/09/11 09:48:49;;;;;;;13.98;6.20;;;;;;;29.07;28.25;99608.35;1671840;84;21051;-68
2021/09/11 09:51:24;;;;;;;10.93;5.60;;;;;;;28.87;28.21;99611.27;1662574;85;21514;-67
2021/09/11 09:53:59;;;;;;;10.38;5.08;;;;;;;28.88;29.01;99614.23;1661972;84;20993;-67
2021/09/11 09:56:29;;;;;;;9.05;6.10;;;;;;;29.13;27.75;99604.39;1685839;84;21004;-67
2021/09/11 09:59:02;;;;;;;10.13;5.20;;;;;;;29.37;28.20;99597.95;1685160;84;21045;-68
2021/09/11 10:01:33;;;;;;;15.05;6.00;;;;;;;29.36;27.95;99597.77;1680017;84;20951;-67
2021/09/11 10:04:22;;;;;;;8.15;4.87;;;;;;;29.39;26.79;99594.06;1660665;84;21529;-67
2021/09/11 10:07:03;;;;;;;12.60;5.85;;;;;;;29.49;26.58;99600.07;1691688;84;21011;-68
2021/09/11 10:09:37;;;;;;;14.93;5.80;;;;;;;29.71;27.18;99593.23;1657546;85;21583;-67
2021/09/11 10:12:07;;;;;;;10.80;5.17;;;;;;;29.86;28.50;99593.03;1670117;84;20948;-68
2021/09/11 10:14:36;;;;;;;13.05;5.20;;;;;;;30.16;28.24;99591.19;1646970;84;21022;-67
2021/09/11 10:17:12;;;;;;;9.63;4.90;;;;;;;30.42;26.95;99589.22;1656591;84;21027;-68
2021/09/11 10:19:43;;;;;;;12.33;5.47;;;;;;;30.64;27.11;99590.80;1678821;85;21031;-68
2021/09/11 10:22:26;;;;;;;10.93;5.33;;;;;;;30.83;25.13;99596.09;1685761;84;21014;-68
2021/09/11 10:25:03;;;;;;;15.50;6.50;;;;;;;30.65;24.45;99589.55;1678241;84;21459;-68
2021/09/11 10:27:37;;;;;;;25.02;6.55;;;;;;;30.40;25.99;99590.91;1683010;84;20965;-67
2021/09/11 10:30:11;;;;;;;13.65;5.58;;;;;;;30.28;25.52;99584.59;1654759;85;21535;-66
2021/09/11 10:32:49;;;;;;;9.75;5.70;;;;;;;30.23;25.34;99585.94;1671807;84;21031;-67
2021/09/11 10:35:23;;;;;;;9.98;5.65;;;;;;;30.23;26.38;99576.83;1682826;84;20998;-66
2021/09/11 10:38:00;;;;;;;12.63;5.62;;;;;;;30.43;26.05;99581.52;1678504;84;20961;-66
2021/09/11 10:40:40;;;;;;;11.88;5.70;;;;;;;30.39;25.69;99571.71;1685215;84;21051;-66
2021/09/11 10:43:14;;;;;;;18.40;6.12;;;;;;;30.46;27.05;99574.33;1682214;84;21133;-67
2021/09/11 10:46:09;;;;;;;7.50;5.70;;;;;;;30.54;25.63;99574.29;1673654;84;20991;-65
2021/09/11 10:48:50;;;;;;;8.48;5.15;;;;;;;30.46;25.28;99569.30;1680748;83;20978;-66
2021/09/11 10:51:35;;;;;;;7.80;5.20;;;;;;;30.38;25.06;99567.91;1677352;85;21517;-66
2021/09/11 10:54:25;;;;;;;21.40;6.83;;;;;;;30.40;25.78;99567.63;1686528;84;20938;-66
2021/09/11 10:57:05;;;;;;;13.18;6.05;;;;;;;30.54;26.35;99565.00;1674017;83;21213;-67
2021/09/11 10:59:44;;;;;;;8.53;5.25;;;;;;;30.80;25.21;99564.41;1678361;84;20908;-66
2021/09/11 11:02:35;;;;;;;11.53;5.72;;;;;;;31.00;25.09;99563.55;1671697;84;21000;-67
2021/09/11 11:05:12;;;;;;;13.43;5.33;;;;;;;30.99;24.01;99561.17;1646921;84;21087;-67
2021/09/11 11:07:43;;;;;;;11.10;5.87;;;;;;;30.81;24.54;99556.07;1679638;84;21058;-67
2021/09/11 11:10:18;;;;;;;10.20;5.70;;;;;;;30.80;25.30;99553.07;1668028;84;21146;-66
2021/09/11 11:12:49;;;;;;;11.33;5.90;;;;;;;30.87;24.77;99550.80;1676770;85;20978;-67
2021/09/11 11:15:23;;;;;;;12.58;6.33;;;;;;;30.82;25.82;99542.87;1635787;86;21112;-67
2021/09/11 11:17:52;;;;;;;10.50;5.53;;;;;;;30.82;24.63;99545.70;1651639;86;21534;-67
2021/09/11 11:20:29;;;;;;;9.73;5.60;;;;;;;30.75;24.51;99537.42;1658214;85;21530;-68
2021/09/11 11:23:03;;;;;;;11.03;6.20;;;;;;;30.80;25.07;99534.03;1677063;84;21602;-68
2021/09/11 11:25:38;;;;;;;15.65;5.55;;;;;;;30.82;26.89;99528.70;1672557;85;21039;-67
2021/09/11 11:28:17;;;;;;;9.25;5.42;;;;;;;31.00;25.11;99524.49;1676851;84;20991;-66
2021/09/11 11:30:47;;;;;;;10.95;5.40;;;;;;;31.11;25.47;99531.40;1679778;84;20975;-68
2021/09/11 11:33:19;;;;;;;8.68;5.50;;;;;;;31.15;24.65;99522.80;1674617;84;21023;-69
2021/09/11 11:35:53;;;;;;;19.82;6.15;;;;;;;31.15;26.26;99521.39;1659051;84;21029;-67
2021/09/11 11:38:31;;;;;;;8.10;5.05;;;;;;;31.06;26.17;99524.88;1675840;83;20964;-67
2021/09/11 11:41:07;;;;;;;12.13;5.47;;;;;;;31.04;25.91;99518.08;1658535;84;21010;-67
2021/09/11 11:43:37;;;;;;;11.63;5.83;;;;;;;31.17;24.51;99514.64;1691478;83;21042;-67
2021/09/11 11:46:11;;;;;;;29.65;6.72;;;;;;;31.24;25.00;99503.02;1693076;83;21049;-66
2021/09/11 11:48:42;;;;;;;11.60;5.15;;;;;;;31.25;24.48;99507.44;1695253;83;22015;-67
2021/09/11 11:51:18;;;;;;;8.73;5.10;;;;;;;31.42;24.68;99501.78;1641865;85;21015;-66